Latest Coastal Weather Observations for Centre Island

IDD60701

Issued at 2:31 pm CST Tuesday 24 January 2017 (issued every 10 minutes, with the page automatically refreshed every 10 minutes)

About coastal observations | Map of coastal stations | Coastal observations for NT | Marine services | Other Formats
Station Details ID: 014703 Name: CENTRE ISLAND Lat: -15.74 Lon: 136.82 Height: 12.2 m
Data from the previous 72 hours. | See also: Recent months at Centre Island
Date/Time
CST
Temp
°C
Wind Pressure Rain since
9am
mm
Weather Cloud Vis
km
Sea
Height
m
Swell
Dir  Spd
kts
Gust
kts
hPa Trend Height
m
Period
s
Dir
24/02:30pm 29.3 NNE 18 21 1005.9 - - - - - - - - -
24/02:00pm 28.7 NE 13 18 1006.3 - 2.6 - - - - - - -
24/01:30pm 27.0 NE 13 18 1006.7 - 2.6 - - - - - - -
24/01:01pm 27.2 NE 19 30 1006.9 - 2.4 - - - - - - -
24/01:00pm 27.5 NE 19 26 1006.9 - 2.4 - - - - - - -
24/12:43pm 27.7 NE 14 21 1006.8 - 2.4 - - - - - - -
24/12:30pm 26.3 NE 8 12 1006.9 - 2.4 - - - - - - -
24/12:00pm 27.5 NE 17 23 1007.4 - 0.6 Recent precip. - - - - - -
24/11:30am 28.7 NE 20 30 1007.4 - 0.0 - - - - - - -
24/11:29am 29.2 NE 19 30 1007.3 - 0.0 - - - - - - -
24/11:00am 29.3 NE 19 24 1007.8 - 0.0 - - - - - - -
24/10:30am 28.9 NE 18 24 1007.8 - 0.0 - - - - - - -
24/10:00am 29.3 NNE 15 19 1007.7 - 0.0 - - - - - - -
24/09:30am 28.5 NNE 12 17 1007.7 - 0.0 - - - - - - -
24/09:00am 27.4 NNE 14 21 1007.7 - 19.0 Recent precip. - - - - - -
24/08:30am 28.2 NNE 16 22 1007.4 - 18.4 - - - - - - -
24/08:00am 27.5 NNE 9 13 1007.1 - 18.4 - - - - - - -
24/07:30am 26.9 NNE 10 13 1006.8 - 18.4 - - - - - - -
24/07:00am 26.8 NE 11 15 1006.4 - 18.2 - - - - - - -
24/06:30am 26.5 NE 12 16 1005.9 - 18.2 - - - - - - -
24/06:00am 26.3 NNE 11 14 1005.4 - 18.2 Rain - - - - - -
24/05:30am 25.9 NNE 9 12 1004.9 - 17.6 - - - - - - -
24/05:00am 25.2 NNE 6 9 1004.9 - 17.2 - - - - - - -
24/04:30am 25.2 NNW 6 9 1004.7 - 16.0 - - - - - - -
24/04:00am 25.8 NNW 9 13 1004.7 - 12.6 - - - - - - -
24/03:30am 25.8 N 9 13 1004.5 - 12.6 - - - - - - -
24/03:00am 25.9 NNE 9 14 1004.5 - 12.6 Rain - - - - - -
24/02:30am 27.6 NE 11 15 1004.3 - 8.6 - - - - - - -
24/02:00am 27.4 NE 13 16 1004.7 - 8.6 - - - - - - -
24/01:30am 27.6 NE 14 18 1005.2 - 8.6 - - - - - - -
24/01:00am 28.3 NNE 13 17 1005.4 - 8.6 - - - - - - -
24/12:30am 28.4 NNE 14 19 1005.8 - 8.6 - - - - - - -
24/12:00am 27.9 NE 15 19 1006.1 - 8.6 - - - - - - -
 
Date/Time
CST
Temp
°C
Wind Pressure Rain since
9am
mm
Weather Cloud Vis
km
Sea
Height
m
Swell
Dir  Spd
kts
Gust
kts
hPa Trend Height
m
Period
s
Dir
23/11:30pm 27.3 NE 14 18 1006.1 - 8.6 - - - - - - -
23/11:00pm 26.7 NNE 13 17 1006.0 - 8.6 - - - - - - -
23/10:30pm 26.5 NNE 13 19 1006.3 - 8.6 - - - - - - -
23/10:00pm 26.3 N 11 16 1006.5 - 8.6 - - - - - - -
23/09:30pm 27.1 N 13 18 1006.2 - 5.4 - - - - - - -
23/09:00pm 27.3 NNE 14 20 1005.8 - 5.0 Recent precip. - - - - - -
23/08:30pm 27.7 NE 16 25 1005.5 - 4.2 - - - - - - -
23/08:08pm 27.2 NE 17 27 1005.2 - 3.6 - - - - - - -
23/08:00pm 28.1 NE 20 27 1005.0 - 3.6 - - - - - - -
23/07:30pm 28.8 NE 19 23 1004.7 - 3.6 - - - - - - -
23/07:00pm 28.7 ENE 17 22 1004.1 - 3.6 - - - - - - -
23/06:30pm 28.4 NE 18 22 1003.5 - 3.6 - - - - - - -
23/06:00pm 27.8 NE 15 19 1003.3 - 3.6 Recent precip. - - - - - -
23/05:30pm 28.2 ENE 15 19 1002.7 - 3.0 - - - - - - -
23/05:00pm 29.6 NE 15 19 1002.7 - 2.6 - - - - - - -
23/04:30pm 29.9 NE 17 21 1002.5 - 2.6 - - - - - - -
23/04:00pm 29.0 NE 16 20 1002.8 - 2.6 - - - - - - -
23/03:30pm 28.3 NE 16 21 1002.9 - 2.6 - - - - - - -
23/03:00pm 29.7 NE 16 20 1003.4 - 1.6 Recent precip. - - - - - -
23/02:30pm 29.7 ENE 16 21 1003.7 - 1.4 - - - - - - -
23/02:00pm 29.7 NE 19 24 1003.9 - 1.4 - - - - - - -
23/01:30pm 27.9 NE 21 29 1004.2 - 1.4 - - - - - - -
23/01:22pm 30.1 NE 19 29 1004.1 - 1.0 - - - - - - -
23/01:00pm 29.7 NE 15 20 1004.4 - 1.0 - - - - - - -
23/12:30pm 29.6 ENE 15 23 1004.7 - 0.4 - - - - - - -
23/12:21pm 29.0 E 17 22 1004.8 - 0.4 - - - - - - -
23/12:08pm 28.9 ENE 15 24 1004.7 - 0.4 - - - - - - -
23/12:00pm 31.3 ENE 14 19 1004.8 - 0.2 Recent precip. - - - - - -
23/11:30am 32.6 ENE 14 17 1005.3 - 0.2 - - - - - - -
23/11:00am 32.0 E 13 16 1005.6 - 0.0 - - - - - - -
23/10:30am 31.1 E 9 14 1005.7 - 0.0 - - - - - - -
23/10:00am 30.7 ESE 12 14 1006.0 - 0.0 - - - - - - -
23/09:30am 31.4 E 7 11 1006.1 - 0.0 - - - - - - -
23/09:00am 29.7 E 5 7 1005.9 - 3.2 - - - - - - -
23/08:30am 29.6 ENE 6 8 1005.8 - 3.2 - - - - - - -
23/08:00am 29.6 ENE 8 9 1005.3 - 3.2 - - - - - - -
23/07:30am 28.9 ENE 7 9 1005.0 - 3.2 - - - - - - -
23/07:00am 27.9 ENE 7 8 1005.0 - 3.2 - - - - - - -
23/06:30am 27.1 CALM 0 0 1004.7 - 3.2 - - - - - - -
23/06:00am 26.7 NE 3 4 1004.4 - 3.2 Recent precip. - - - - - -
23/05:30am 27.2 NNE 5 8 1004.3 - 3.0 - - - - - - -
23/05:00am 27.7 NNE 3 5 1004.2 - 1.6 - - - - - - -
23/04:30am 27.8 N 5 7 1004.2 - 1.6 - - - - - - -
23/04:00am 27.9 NNE 6 8 1004.2 - 1.6 - - - - - - -
23/03:30am 27.9 NNE 6 8 1004.3 - 1.6 - - - - - - -
23/03:00am 28.1 NNE 7 8 1004.4 - 1.6 - - - - - - -
23/02:30am 28.1 NNE 7 10 1004.4 - 1.6 - - - - - - -
23/02:00am 28.2 N 7 9 1004.6 - 1.6 - - - - - - -
23/01:30am 28.1 N 6 8 1005.0 - 1.6 - - - - - - -
23/01:00am 28.3 NNE 9 11 1005.3 - 1.6 - - - - - - -
23/12:30am 28.5 NE 12 15 1005.8 - 1.6 - - - - - - -
23/12:00am 28.5 NNE 13 17 1006.2 - 1.6 - - - - - - -
 
Date/Time
CST
Temp
°C
Wind Pressure Rain since
9am
mm
Weather Cloud Vis
km
Sea
Height
m
Swell
Dir  Spd
kts
Gust
kts
hPa Trend Height
m
Period
s
Dir
22/11:30pm 28.6 NNE 12 16 1006.7 - 1.6 - - - - - - -
22/11:00pm 28.8 NE 11 14 1007.0 - 1.6 - - - - - - -
22/10:30pm 28.8 NE 12 15 1007.0 - 1.6 - - - - - - -
22/10:00pm 28.7 NE 12 16 1006.7 - 1.6 - - - - - - -
22/09:30pm 28.6 NE 13 16 1006.4 - 1.6 - - - - - - -
22/09:00pm 28.2 NE 12 16 1006.3 - 1.6 Recent precip. - - - - - -
22/08:30pm 26.9 NE 15 21 1006.1 - 1.6 - - - - - - -
22/08:16pm 29.1 ENE 15 25 1005.8 - 0.0 - - - - - - -
22/08:00pm 29.7 NE 13 16 1005.7 - 0.0 - - - - - - -
22/07:30pm 29.8 NE 13 16 1005.8 - 0.0 - - - - - - -
22/07:00pm 30.0 NE 11 15 1005.6 - 0.0 - - - - - - -
22/06:30pm 30.3 ENE 13 16 1005.0 - 0.0 - - - - - - -
22/06:00pm 30.7 ENE 13 17 1004.5 - 0.0 - - - - - - -
22/05:30pm 31.2 ENE 11 15 1004.1 - 0.0 - - - - - - -
22/05:00pm 31.4 NE 12 16 1003.6 - 0.0 - - - - - - -
22/04:30pm 31.3 NNE 13 17 1003.9 - 0.0 - - - - - - -
22/04:00pm 32.0 NNE 13 17 1003.5 - 0.0 - - - - - - -
22/03:30pm 32.8 NE 10 13 1003.7 - 0.0 - - - - - - -
22/03:00pm 33.3 ENE 8 11 1004.2 - 0.0 - - - - - - -
22/02:30pm 32.0 NE 11 17 1004.8 - 0.0 - - - - - - -
22/02:00pm 32.9 E 7 12 1005.0 - 0.0 - - - - - - -
22/01:30pm 33.1 ENE 5 6 1005.1 - 0.0 - - - - - - -
22/01:00pm 32.4 SE 4 6 1005.6 - 0.0 - - - - - - -
22/12:30pm 32.5 SE 4 5 1006.2 - 0.0 - - - - - - -
22/12:00pm 31.9 S 4 5 1006.8 - 0.0 - - - - - - -
22/11:30am 31.2 SSE 4 6 1007.3 - 0.0 - - - - - - -
22/11:00am 31.5 SW 5 7 1007.5 - 0.0 - - - - - - -
22/10:30am 31.0 WSW 7 9 1007.6 - 0.0 - - - - - - -
22/10:00am 30.5 WSW 8 11 1008.0 - 0.0 - - - - - - -
22/09:30am 30.3 WSW 9 11 1008.1 - 0.0 - - - - - - -
22/09:00am 29.9 WSW 9 11 1007.9 - 6.2 - - - - - - -
22/08:30am 29.3 W 10 12 1007.8 - 6.2 - - - - - - -
22/08:00am 28.6 W 11 14 1007.8 - 6.2 - - - - - - -
22/07:30am 28.1 W 10 14 1007.6 - 6.2 - - - - - - -
22/07:00am 27.7 WNW 9 12 1007.5 - 6.2 - - - - - - -
22/06:30am 27.3 W 7 10 1007.3 - 6.2 - - - - - - -
22/06:00am 27.1 WNW 8 11 1006.7 - 6.2 - - - - - - -
22/05:30am 27.3 WNW 8 11 1006.2 - 6.2 - - - - - - -
22/05:00am 26.8 WNW 5 7 1006.0 - 6.2 - - - - - - -
22/04:30am 26.3 WNW 6 7 1005.9 - 6.2 - - - - - - -
22/04:00am 26.0 WNW 5 7 1006.3 - 6.0 - - - - - - -
22/03:30am 25.7 WNW 10 13 1006.4 - 6.0 - - - - - - -
22/03:00am 25.9 NW 10 19 1006.9 - 1.4 Rain - - - - - -
22/02:30am 27.9 WNW 10 15 1007.2 - 0.0 - - - - - - -
22/02:00am 28.5 WNW 4 5 1007.0 - 0.0 - - - - - - -
22/01:30am 28.8 WNW 5 7 1007.2 - 0.0 - - - - - - -
22/01:00am 28.8 NW 5 7 1007.5 - 0.0 - - - - - - -
22/12:30am 29.1 WNW 6 8 1007.8 - 0.0 - - - - - - -
22/12:00am 28.8 NW 6 7 1008.3 - 0.0 - - - - - - -
 
Date/Time
CST
Temp
°C
Wind Pressure Rain since
9am
mm
Weather Cloud Vis
km
Sea
Height
m
Swell
Dir  Spd
kts
Gust
kts
hPa Trend Height
m
Period
s
Dir
21/11:30pm 28.9 WNW 5 7 1008.6 - 0.0 - - - - - - -
21/11:00pm 29.0 NW 5 7 1008.3 - 0.0 - - - - - - -
21/10:30pm 29.1 NNW 5 8 1008.0 - 0.0 - - - - - - -
21/10:00pm 29.2 NW 5 8 1008.0 - 0.0 - - - - - - -
21/09:30pm 29.3 NNW 6 7 1008.0 - 0.0 - - - - - - -
21/09:00pm 29.4 N 8 11 1007.6 - 0.0 - - - - - - -
21/08:30pm 29.4 N 9 14 1007.3 - 0.0 - - - - - - -
21/08:00pm 29.5 N 9 12 1006.7 - 0.0 - - - - - - -
21/07:30pm 29.5 N 8 11 1006.3 - 0.0 - - - - - - -
21/07:00pm 29.7 NNW 9 11 1005.7 - 0.0 - - - - - - -
21/06:30pm 30.2 N 9 11 1005.1 - 0.0 - - - - - - -
21/06:00pm 31.1 NNE 10 13 1004.9 - 0.0 - - - - - - -
21/05:30pm 31.5 NNE 11 16 1004.5 - 0.0 - - - - - - -
21/05:00pm 32.1 N 9 12 1004.5 - 0.0 - - - - - - -
21/04:30pm 32.4 NNE 10 13 1004.3 - 0.0 - - - - - - -
21/04:00pm 33.1 N 9 13 1004.5 - 0.0 - - - - - - -
21/03:30pm 33.2 NNE 8 12 1004.9 - 0.0 - - - - - - -
21/03:00pm 33.0 NNE 9 11 1005.2 - 0.0 - - - - - - -

Other Formats:

Comma delimited format used in spreadsheet applications
http://www.bom.gov.au/fwo/IDD60701/IDD60701.94248.axf

JavaScript Object Notation format (JSON) in row-major order
http://www.bom.gov.au/fwo/IDD60701/IDD60701.94248.json